Time;durP1;ratioP1;P1;durP2;ratioP2;P2;SDS_P1;SDS_P2;PMS_P1;PMS_P2;Temp;Humidity;BMP_temperature;BMP_pressure;BME280_temperature;BME280_humidity;BME280_pressure;Samples;Min_cycle;Max_cycle;Signal;HPM_P1;HPM_P2
2022/09/15 00:00:18;;;;;;;0.22;0.22;;;16.00;99.90;;;;;;5010205;28;20058;-70
2022/09/15 00:02:44;;;;;;;0.00;0.00;;;16.00;99.90;;;;;;5009036;28;20111;-70
2022/09/15 00:05:11;;;;;;;0.03;0.03;;;16.00;99.90;;;;;;5010500;28;20050;-70
2022/09/15 00:07:37;;;;;;;0.13;0.13;;;16.00;99.90;;;;;;5010201;28;20122;-70
2022/09/15 00:10:04;;;;;;;0.00;0.00;;;16.00;99.90;;;;;;5009011;28;20120;-70
2022/09/15 00:12:31;;;;;;;0.00;0.00;;;16.00;99.90;;;;;;5011160;28;20042;-71
2022/09/15 00:14:57;;;;;;;0.08;0.08;;;15.90;99.90;;;;;;5010929;28;20058;-70
2022/09/15 00:17:22;;;;;;;0.00;0.00;;;15.90;99.90;;;;;;4990858;28;20069;-70
2022/09/15 00:19:48;;;;;;;0.00;0.00;;;15.90;99.90;;;;;;5010827;28;20053;-70
2022/09/15 00:22:14;;;;;;;0.00;0.00;;;15.90;99.90;;;;;;5009749;28;20045;-70
2022/09/15 00:24:40;;;;;;;0.10;0.10;;;15.80;99.90;;;;;;5008646;28;20096;-70
2022/09/15 00:27:06;;;;;;;0.03;0.03;;;15.90;99.90;;;;;;5010456;28;20481;-71
2022/09/15 00:29:32;;;;;;;0.05;0.05;;;15.80;99.90;;;;;;5004742;28;20092;-70
2022/09/15 00:31:58;;;;;;;0.00;0.00;;;15.90;99.90;;;;;;5010880;28;20049;-71
2022/09/15 00:34:23;;;;;;;0.00;0.00;;;15.90;99.90;;;;;;5010922;28;20042;-71
2022/09/15 00:36:49;;;;;;;0.00;0.00;;;15.90;99.90;;;;;;5008145;28;20057;-71
2022/09/15 00:39:14;;;;;;;0.00;0.00;;;15.90;99.90;;;;;;5010418;28;20084;-70
2022/09/15 00:41:40;;;;;;;0.00;0.00;;;15.90;99.90;;;;;;4996688;28;20452;-70
2022/09/15 00:44:34;;;;;;;0.00;0.00;;;15.90;99.90;;;;;;4989794;28;20053;-71
2022/09/15 00:47:01;;;;;;;0.00;0.00;;;16.00;99.90;;;;;;4990785;28;20375;-70
2022/09/15 00:49:31;;;;;;;0.00;0.00;;;16.00;99.90;;;;;;5007396;28;20041;-71
2022/09/15 00:52:10;;;;;;;0.00;0.00;;;16.00;99.90;;;;;;5010738;28;20129;-71
2022/09/15 00:54:46;;;;;;;0.30;0.30;;;16.00;99.90;;;;;;5010698;28;20410;-70
2022/09/15 00:57:18;;;;;;;0.10;0.10;;;16.00;99.90;;;;;;4993712;28;20397;-69
2022/09/15 00:59:46;;;;;;;0.08;0.08;;;16.00;99.90;;;;;;4990983;28;20054;-70
2022/09/15 01:02:21;;;;;;;0.30;0.28;;;15.90;99.90;;;;;;4993466;28;20137;-70
2022/09/15 01:04:49;;;;;;;0.00;0.00;;;15.90;99.90;;;;;;4993285;28;20046;-70
2022/09/15 01:07:21;;;;;;;0.00;0.00;;;15.90;99.90;;;;;;5008736;28;20490;-71
2022/09/15 01:09:57;;;;;;;0.10;0.10;;;15.90;99.90;;;;;;4992375;28;20062;-70
2022/09/15 01:12:24;;;;;;;0.00;0.00;;;15.90;99.90;;;;;;4989917;28;20100;-71
2022/09/15 01:14:50;;;;;;;0.10;0.10;;;15.90;99.90;;;;;;4990419;28;20085;-70
2022/09/15 01:17:33;;;;;;;0.00;0.00;;;16.00;99.90;;;;;;4990031;28;20043;-70
2022/09/15 01:20:10;;;;;;;0.00;0.00;;;16.00;99.90;;;;;;4997405;28;20398;-71
2022/09/15 01:23:17;;;;;;;0.00;0.00;;;16.00;99.90;;;;;;5012958;28;20406;-70
2022/09/15 01:25:53;;;;;;;0.00;0.00;;;16.00;99.90;;;;;;5012670;28;20053;-71
2022/09/15 01:28:43;;;;;;;0.00;0.00;;;16.00;99.90;;;;;;5008974;28;20049;-71
2022/09/15 01:34:40;;;;;;;3.53;0.40;;;16.00;99.90;;;;;;4993208;28;20046;-71
2022/09/15 01:37:11;;;;;;;0.10;0.10;;;16.00;99.90;;;;;;4993980;28;20132;-70
2022/09/15 01:39:42;;;;;;;0.00;0.00;;;16.00;99.90;;;;;;4994654;28;20051;-71
2022/09/15 01:42:13;;;;;;;0.45;0.45;;;16.00;99.90;;;;;;4993227;28;20050;-71
2022/09/15 01:44:47;;;;;;;0.80;0.55;;;16.00;99.90;;;;;;4993163;28;20121;-71
2022/09/15 01:47:16;;;;;;;0.00;0.00;;;16.00;99.90;;;;;;4993365;28;20113;-72
2022/09/15 01:49:45;;;;;;;5.40;1.00;;;16.00;99.90;;;;;;5008841;28;20050;-71
2022/09/15 01:52:16;;;;;;;1.67;0.63;;;16.00;99.90;;;;;;5013366;28;20046;-71
2022/09/15 01:54:47;;;;;;;0.00;0.00;;;16.00;99.90;;;;;;5012141;28;20049;-71
2022/09/15 01:57:16;;;;;;;0.10;0.10;;;16.00;99.90;;;;;;4992542;28;20177;-71
2022/09/15 01:59:43;;;;;;;0.52;0.52;;;16.00;99.90;;;;;;4993526;28;20470;-71
2022/09/15 02:02:14;;;;;;;0.00;0.00;;;16.00;99.90;;;;;;4990342;28;20493;-71
2022/09/15 02:04:48;;;;;;;0.00;0.00;;;15.80;99.90;;;;;;4994030;28;20069;-71
2022/09/15 02:07:30;;;;;;;0.00;0.00;;;15.90;99.90;;;;;;4992878;28;20073;-71
2022/09/15 02:10:12;;;;;;;0.00;0.00;;;15.80;99.90;;;;;;4994354;28;20121;-71
2022/09/15 02:13:00;;;;;;;0.00;0.00;;;15.80;99.90;;;;;;4992625;28;20054;-71
2022/09/15 02:15:36;;;;;;;0.00;0.00;;;15.90;99.90;;;;;;4991639;28;20047;-71
2022/09/15 02:18:05;;;;;;;0.00;0.00;;;15.80;99.90;;;;;;4991842;28;20510;-71
2022/09/15 02:20:46;;;;;;;0.10;0.10;;;15.80;99.90;;;;;;4993518;28;20050;-71
2022/09/15 02:23:25;;;;;;;0.08;0.08;;;15.80;99.90;;;;;;4993956;28;20070;-71
2022/09/15 02:26:05;;;;;;;0.20;0.20;;;15.80;99.90;;;;;;5005608;28;20054;-71
2022/09/15 02:28:35;;;;;;;0.00;0.00;;;15.80;99.90;;;;;;4991688;28;20089;-71
2022/09/15 02:31:03;;;;;;;0.00;0.00;;;15.80;99.90;;;;;;5010268;28;20108;-71
2022/09/15 02:33:39;;;;;;;0.00;0.00;;;15.80;99.90;;;;;;5012576;28;20052;-71
2022/09/15 02:36:07;;;;;;;0.00;0.00;;;15.80;99.90;;;;;;5005869;28;20077;-71
2022/09/15 02:38:38;;;;;;;0.00;0.00;;;15.80;99.90;;;;;;4993186;28;20042;-71
2022/09/15 02:41:04;;;;;;;0.00;0.00;;;15.80;99.90;;;;;;4992474;28;20380;-70
2022/09/15 02:43:30;;;;;;;0.00;0.00;;;15.80;99.90;;;;;;4993094;28;20053;-71
2022/09/15 02:45:56;;;;;;;0.08;0.08;;;15.90;99.90;;;;;;5012482;28;20054;-71
2022/09/15 02:48:24;;;;;;;2.72;0.43;;;15.80;99.90;;;;;;4993634;28;20073;-72
2022/09/15 02:50:50;;;;;;;0.00;0.00;;;15.90;99.90;;;;;;4992667;28;20046;-72
2022/09/15 02:53:15;;;;;;;0.08;0.08;;;15.90;99.90;;;;;;4991137;28;20112;-71
2022/09/15 02:55:41;;;;;;;0.10;0.10;;;15.90;99.90;;;;;;4992988;28;20043;-71
2022/09/15 02:58:07;;;;;;;0.00;0.00;;;15.90;99.90;;;;;;4991540;28;20117;-71
2022/09/15 03:00:32;;;;;;;0.10;0.10;;;15.90;99.90;;;;;;4991256;28;20100;-71
2022/09/15 03:02:58;;;;;;;0.00;0.00;;;15.90;99.90;;;;;;4992129;28;20100;-72
2022/09/15 03:05:26;;;;;;;0.10;0.10;;;15.90;99.90;;;;;;4992612;28;20047;-72
2022/09/15 03:07:53;;;;;;;0.00;0.00;;;15.90;99.90;;;;;;4997566;28;20056;-71
2022/09/15 03:10:19;;;;;;;0.00;0.00;;;16.00;99.90;;;;;;5011002;28;20065;-71
2022/09/15 03:12:47;;;;;;;0.10;0.10;;;16.00;99.90;;;;;;5012278;28;20053;-71
2022/09/15 03:15:15;;;;;;;0.00;0.00;;;16.00;99.90;;;;;;4998295;28;20475;-71
2022/09/15 03:17:41;;;;;;;0.00;0.00;;;16.00;99.90;;;;;;4991962;28;20054;-71
2022/09/15 03:20:10;;;;;;;0.00;0.00;;;15.90;99.90;;;;;;4996396;28;20402;-71
2022/09/15 03:22:37;;;;;;;1.75;0.85;;;15.90;99.90;;;;;;5010680;28;20398;-71
2022/09/15 03:25:04;;;;;;;0.00;0.00;;;15.90;99.90;;;;;;5010052;28;20056;-71
2022/09/15 03:27:30;;;;;;;0.00;0.00;;;15.90;99.90;;;;;;5012234;28;20034;-71
2022/09/15 03:29:56;;;;;;;0.00;0.00;;;15.90;99.90;;;;;;4995987;28;20042;-71
2022/09/15 03:32:21;;;;;;;0.52;0.52;;;15.80;99.90;;;;;;4993955;28;20544;-71
2022/09/15 03:34:47;;;;;;;0.05;0.05;;;15.80;99.90;;;;;;4992209;28;20050;-71
2022/09/15 03:37:13;;;;;;;0.00;0.00;;;15.80;99.90;;;;;;4991847;28;20049;-71
2022/09/15 03:39:38;;;;;;;0.00;0.00;;;15.80;99.90;;;;;;5004957;28;20092;-71
2022/09/15 03:42:04;;;;;;;0.00;0.00;;;15.80;99.90;;;;;;4992921;28;20101;-71
2022/09/15 03:44:30;;;;;;;0.00;0.00;;;15.80;99.90;;;;;;4990724;28;20096;-71
2022/09/15 03:46:56;;;;;;;0.00;0.00;;;15.80;99.90;;;;;;4990628;28;20105;-71
2022/09/15 03:49:23;;;;;;;1.85;0.80;;;15.80;99.90;;;;;;5010300;28;20057;-71
2022/09/15 03:51:49;;;;;;;0.10;0.10;;;15.90;99.90;;;;;;5011979;28;20044;-71
2022/09/15 03:54:15;;;;;;;0.00;0.00;;;15.90;99.90;;;;;;5010994;28;20041;-71
2022/09/15 03:56:41;;;;;;;0.00;0.00;;;15.80;99.90;;;;;;5011837;28;20046;-71
2022/09/15 03:59:07;;;;;;;0.00;0.00;;;15.90;99.90;;;;;;4990720;28;20058;-71
2022/09/15 04:01:32;;;;;;;0.00;0.00;;;15.80;99.90;;;;;;4991350;28;20054;-71
2022/09/15 04:03:58;;;;;;;0.82;0.82;;;15.80;99.90;;;;;;4991013;28;20046;-70
2022/09/15 04:06:25;;;;;;;0.20;0.20;;;15.80;99.90;;;;;;5008727;28;20044;-71
2022/09/15 04:08:51;;;;;;;0.00;0.00;;;15.80;99.90;;;;;;5009524;28;20038;-71
2022/09/15 04:11:19;;;;;;;0.00;0.00;;;15.80;99.90;;;;;;5010938;28;20046;-71
2022/09/15 04:13:45;;;;;;;0.00;0.00;;;15.80;99.90;;;;;;5009327;28;20054;-71
2022/09/15 04:16:13;;;;;;;0.00;0.00;;;15.80;99.90;;;;;;5001543;28;20482;-71
2022/09/15 04:18:39;;;;;;;0.00;0.00;;;15.70;99.90;;;;;;4991628;28;20130;-71
2022/09/15 04:21:09;;;;;;;0.00;0.00;;;15.70;99.90;;;;;;4990394;28;20124;-71
2022/09/15 04:23:35;;;;;;;0.10;0.10;;;15.70;99.90;;;;;;4990422;28;20050;-71
2022/09/15 04:26:06;;;;;;;0.05;0.05;;;15.70;99.90;;;;;;4991364;28;20413;-71
2022/09/15 04:28:33;;;;;;;0.10;0.10;;;15.70;99.90;;;;;;4995484;28;20042;-71
2022/09/15 04:31:08;;;;;;;0.03;0.03;;;15.70;99.90;;;;;;5010554;28;20100;-71
2022/09/15 04:33:36;;;;;;;0.00;0.00;;;15.70;99.90;;;;;;5011111;28;20077;-71
2022/09/15 04:36:06;;;;;;;0.10;0.10;;;15.80;99.90;;;;;;5005514;28;20127;-71
2022/09/15 04:38:32;;;;;;;0.38;0.38;;;15.80;99.90;;;;;;5011335;28;20107;-72
2022/09/15 04:40:58;;;;;;;0.00;0.00;;;15.80;99.90;;;;;;5011004;28;20041;-71
2022/09/15 04:43:25;;;;;;;0.00;0.00;;;15.80;99.90;;;;;;5010001;28;20482;-71
2022/09/15 04:45:51;;;;;;;0.00;0.00;;;15.80;99.90;;;;;;5007296;28;20042;-72
2022/09/15 04:48:16;;;;;;;0.00;0.00;;;15.80;99.90;;;;;;5002756;28;20039;-71
2022/09/15 04:50:42;;;;;;;0.00;0.00;;;15.80;99.90;;;;;;4990240;28;20058;-71
2022/09/15 04:53:08;;;;;;;0.10;0.10;;;15.80;99.90;;;;;;4990830;28;20125;-71
2022/09/15 04:55:34;;;;;;;0.00;0.00;;;15.80;99.90;;;;;;4990563;28;20062;-71
2022/09/15 04:58:01;;;;;;;0.10;0.10;;;15.80;99.90;;;;;;4989536;28;20398;-71
2022/09/15 05:00:28;;;;;;;0.00;0.00;;;15.70;99.90;;;;;;4990477;28;20394;-72
2022/09/15 05:02:53;;;;;;;0.00;0.00;;;15.70;99.90;;;;;;4990196;28;20528;-71
2022/09/15 05:05:19;;;;;;;0.00;0.00;;;15.70;99.90;;;;;;5006020;28;20054;-71
2022/09/15 05:07:48;;;;;;;0.10;0.10;;;15.60;99.90;;;;;;5010983;28;20136;-71
2022/09/15 05:10:14;;;;;;;0.00;0.00;;;15.70;99.90;;;;;;5009316;28;20053;-71
2022/09/15 05:12:40;;;;;;;0.00;0.00;;;15.70;99.90;;;;;;5008663;28;20089;-71
2022/09/15 05:15:06;;;;;;;0.00;0.00;;;15.70;99.90;;;;;;4990186;28;20498;-71
2022/09/15 05:17:32;;;;;;;0.10;0.10;;;15.60;99.90;;;;;;4990368;28;20061;-71
2022/09/15 05:19:59;;;;;;;0.00;0.00;;;15.60;99.90;;;;;;4990052;28;20038;-71
2022/09/15 05:22:25;;;;;;;0.10;0.10;;;15.70;99.90;;;;;;5009869;28;20592;-72
2022/09/15 05:24:51;;;;;;;0.28;0.20;;;15.70;99.90;;;;;;5009692;28;20486;-71
2022/09/15 05:27:16;;;;;;;0.63;0.63;;;15.70;99.90;;;;;;5007011;28;20096;-70
2022/09/15 05:29:42;;;;;;;5.38;1.20;;;15.70;99.90;;;;;;5010216;28;20038;-71
2022/09/15 05:32:08;;;;;;;0.00;0.00;;;15.70;99.90;;;;;;5001248;28;20080;-71
2022/09/15 05:34:33;;;;;;;0.40;0.40;;;15.70;99.90;;;;;;4989209;28;20046;-72
2022/09/15 05:36:59;;;;;;;0.32;0.32;;;15.70;99.90;;;;;;4989696;28;20043;-72
2022/09/15 05:39:24;;;;;;;0.00;0.00;;;15.70;99.90;;;;;;4989983;28;20057;-72
2022/09/15 05:41:50;;;;;;;0.03;0.03;;;15.70;99.90;;;;;;4993670;28;20038;-72
2022/09/15 05:44:16;;;;;;;0.10;0.10;;;15.70;99.90;;;;;;4990532;28;20670;-72
2022/09/15 05:46:41;;;;;;;0.00;0.00;;;15.80;99.90;;;;;;5001216;28;20434;-72
2022/09/15 05:49:07;;;;;;;9.85;1.10;;;15.80;99.90;;;;;;5010093;28;20128;-72
2022/09/15 05:51:33;;;;;;;0.10;0.10;;;15.80;99.90;;;;;;5008021;28;20073;-72
2022/09/15 05:53:59;;;;;;;0.00;0.00;;;15.80;99.90;;;;;;5009693;28;20494;-72
2022/09/15 05:56:25;;;;;;;0.10;0.10;;;15.80;99.90;;;;;;5010370;28;20125;-72
2022/09/15 05:58:51;;;;;;;0.00;0.00;;;15.80;99.90;;;;;;5010147;28;20394;-72
2022/09/15 06:01:19;;;;;;;0.15;0.15;;;15.80;99.90;;;;;;4994743;28;20067;-72
2022/09/15 06:03:45;;;;;;;0.08;0.08;;;15.70;99.90;;;;;;5000560;28;20129;-72
2022/09/15 06:06:11;;;;;;;0.00;0.00;;;15.80;99.90;;;;;;4990953;28;20395;-72
2022/09/15 06:08:40;;;;;;;0.00;0.00;;;15.80;99.90;;;;;;4993252;28;20479;-72
2022/09/15 06:11:12;;;;;;;0.00;0.00;;;15.80;99.90;;;;;;5009173;28;20497;-72
2022/09/15 06:13:38;;;;;;;0.10;0.10;;;15.80;99.90;;;;;;5008171;28;20046;-72
2022/09/15 06:16:10;;;;;;;0.00;0.00;;;15.80;99.90;;;;;;4994001;28;20046;-72
2022/09/15 06:18:37;;;;;;;0.00;0.00;;;15.80;99.90;;;;;;5003031;28;20862;-71
2022/09/15 06:21:10;;;;;;;0.00;0.00;;;15.80;99.90;;;;;;5012287;28;20038;-71
2022/09/15 06:23:37;;;;;;;0.28;0.20;;;15.80;99.90;;;;;;5012459;28;20053;-71
2022/09/15 06:26:17;;;;;;;0.10;0.10;;;15.80;99.90;;;;;;5010571;28;20449;-71
2022/09/15 06:28:53;;;;;;;0.10;0.10;;;15.80;99.90;;;;;;5012680;28;20041;-71
2022/09/15 06:31:18;;;;;;;0.80;0.40;;;15.80;99.90;;;;;;5012861;28;20045;-72
2022/09/15 06:33:46;;;;;;;0.00;0.00;;;15.80;99.90;;;;;;5002920;28;20057;-72
2022/09/15 06:36:14;;;;;;;0.00;0.00;;;15.80;99.90;;;;;;5011543;28;20100;-71
2022/09/15 06:38:41;;;;;;;0.00;0.00;;;15.80;99.90;;;;;;4998023;28;20046;-72
2022/09/15 06:41:07;;;;;;;0.00;0.00;;;15.70;99.90;;;;;;5006461;28;20046;-72
2022/09/15 06:43:33;;;;;;;0.03;0.03;;;15.70;99.90;;;;;;5002630;28;20046;-72
2022/09/15 06:46:10;;;;;;;0.00;0.00;;;15.70;99.90;;;;;;4993103;28;20074;-72
2022/09/15 06:48:37;;;;;;;0.03;0.03;;;15.80;99.90;;;;;;5006553;28;20074;-72
2022/09/15 06:51:05;;;;;;;0.10;0.10;;;15.80;99.90;;;;;;5012627;28;20058;-72
2022/09/15 06:53:32;;;;;;;0.00;0.00;;;15.80;99.90;;;;;;4996442;28;20047;-72
2022/09/15 06:56:10;;;;;;;0.00;0.00;;;15.80;99.90;;;;;;4992234;28;20569;-72
2022/09/15 06:58:37;;;;;;;0.00;0.00;;;15.80;99.90;;;;;;4992222;28;20057;-72
2022/09/15 07:01:08;;;;;;;0.00;0.00;;;15.90;99.90;;;;;;4990723;28;20125;-72
2022/09/15 07:03:35;;;;;;;0.10;0.10;;;15.90;99.90;;;;;;5011635;28;20487;-72
2022/09/15 07:06:02;;;;;;;0.10;0.10;;;15.90;99.90;;;;;;4995672;28;20057;-72
2022/09/15 07:08:28;;;;;;;0.00;0.00;;;15.90;99.90;;;;;;4992926;28;20102;-71
2022/09/15 07:10:54;;;;;;;0.00;0.00;;;15.90;99.90;;;;;;4992251;28;20049;-72
2022/09/15 07:13:20;;;;;;;9.27;1.10;;;16.00;99.90;;;;;;4999284;28;20037;-72
2022/09/15 07:15:51;;;;;;;0.00;0.00;;;16.00;99.90;;;;;;5012314;28;20063;-72
2022/09/15 07:18:16;;;;;;;0.00;0.00;;;16.00;99.90;;;;;;5009698;28;20104;-72
2022/09/15 07:20:42;;;;;;;0.00;0.00;;;16.00;99.90;;;;;;5012276;28;20502;-72
2022/09/15 07:23:07;;;;;;;0.10;0.10;;;16.00;99.90;;;;;;5000422;28;20533;-70
2022/09/15 07:25:33;;;;;;;0.00;0.00;;;16.00;99.90;;;;;;4992299;28;20423;-70
2022/09/15 07:27:59;;;;;;;0.10;0.10;;;15.90;99.90;;;;;;4992622;28;20043;-70
2022/09/15 07:30:24;;;;;;;0.00;0.00;;;15.90;99.90;;;;;;4990100;28;20054;-70
2022/09/15 07:32:51;;;;;;;0.00;0.00;;;15.80;99.90;;;;;;4993111;28;20493;-70
2022/09/15 07:35:17;;;;;;;0.10;0.10;;;15.70;99.90;;;;;;4992036;28;20129;-70
2022/09/15 07:37:43;;;;;;;0.10;0.10;;;15.70;99.90;;;;;;4991558;28;20860;-70
2022/09/15 07:40:10;;;;;;;0.63;0.47;;;15.70;99.90;;;;;;4994166;28;20049;-70
2022/09/15 07:42:36;;;;;;;0.45;0.45;;;15.70;99.90;;;;;;4992043;28;20085;-70
2022/09/15 07:45:01;;;;;;;0.10;0.10;;;15.80;99.90;;;;;;4991497;28;20081;-70
2022/09/15 07:47:27;;;;;;;0.00;0.00;;;15.90;99.90;;;;;;4990355;28;20061;-70
2022/09/15 07:49:52;;;;;;;0.00;0.00;;;16.00;99.90;;;;;;4992043;28;20050;-70
2022/09/15 07:52:18;;;;;;;0.10;0.10;;;16.20;99.90;;;;;;4989991;28;20584;-70
2022/09/15 07:54:43;;;;;;;0.00;0.00;;;16.40;99.90;;;;;;5010351;28;20068;-70
2022/09/15 07:57:09;;;;;;;0.68;0.25;;;16.50;99.90;;;;;;5011083;28;20132;-71
2022/09/15 07:59:34;;;;;;;0.00;0.00;;;16.60;99.90;;;;;;5011389;28;20087;-70
2022/09/15 08:02:00;;;;;;;0.00;0.00;;;16.70;99.90;;;;;;5007749;28;20149;-70
2022/09/15 08:04:25;;;;;;;0.03;0.03;;;16.80;99.90;;;;;;4991448;28;20141;-71
2022/09/15 08:06:51;;;;;;;0.00;0.00;;;16.70;99.90;;;;;;4990103;28;20055;-71
2022/09/15 08:09:17;;;;;;;0.00;0.00;;;16.80;99.90;;;;;;4991740;28;20034;-70
2022/09/15 08:11:43;;;;;;;0.00;0.00;;;16.80;99.90;;;;;;4989897;28;20100;-70
2022/09/15 08:14:09;;;;;;;0.00;0.00;;;16.80;99.90;;;;;;5009760;28;20056;-71
2022/09/15 08:16:34;;;;;;;0.00;0.00;;;16.90;99.90;;;;;;5011582;28;20509;-71
2022/09/15 08:19:01;;;;;;;0.10;0.10;;;16.90;99.90;;;;;;5009919;28;20038;-70
2022/09/15 08:21:27;;;;;;;0.00;0.00;;;16.90;99.90;;;;;;5006284;28;20124;-70
2022/09/15 08:23:55;;;;;;;2.30;1.00;;;16.90;99.90;;;;;;5011461;28;20184;-70
2022/09/15 08:26:21;;;;;;;0.00;0.00;;;17.00;99.90;;;;;;5007092;28;20053;-71
2022/09/15 08:28:47;;;;;;;0.00;0.00;;;17.10;99.90;;;;;;4997129;28;20046;-70
2022/09/15 08:31:15;;;;;;;0.00;0.00;;;17.20;99.90;;;;;;5001423;28;20485;-70
2022/09/15 08:33:41;;;;;;;0.00;0.00;;;17.20;99.90;;;;;;4994574;28;20117;-70
2022/09/15 08:36:12;;;;;;;0.10;0.10;;;17.20;99.90;;;;;;4989805;28;20121;-71
2022/09/15 08:38:43;;;;;;;0.00;0.00;;;17.20;99.90;;;;;;4991378;28;20474;-71
2022/09/15 08:41:23;;;;;;;0.00;0.00;;;17.20;99.90;;;;;;5003396;28;20046;-70
2022/09/15 08:44:07;;;;;;;0.00;0.00;;;17.30;99.90;;;;;;5008747;28;20053;-71
2022/09/15 08:46:47;;;;;;;0.00;0.00;;;17.40;99.90;;;;;;5010973;28;20042;-71
2022/09/15 08:49:24;;;;;;;0.00;0.00;;;17.40;99.90;;;;;;5008616;28;20130;-70
2022/09/15 08:51:51;;;;;;;0.00;0.00;;;17.50;99.90;;;;;;4994237;28;20086;-70
2022/09/15 08:54:21;;;;;;;0.10;0.10;;;17.60;99.90;;;;;;4990475;28;20557;-71
2022/09/15 08:56:48;;;;;;;0.05;0.05;;;17.90;99.90;;;;;;4988998;28;20490;-71
2022/09/15 08:59:15;;;;;;;0.00;0.00;;;17.90;99.90;;;;;;4989259;28;20038;-71
2022/09/15 09:02:15;;;;;;;0.00;0.00;;;17.80;99.90;;;;;;4990354;28;20065;-71
2022/09/15 09:05:07;;;;;;;0.00;0.00;;;17.70;99.90;;;;;;4998419;28;20050;-71
2022/09/15 09:07:35;;;;;;;0.00;0.00;;;17.90;99.90;;;;;;5010818;28;20050;-70
2022/09/15 09:10:12;;;;;;;2.40;0.60;;;18.90;99.90;;;;;;5008729;28;20053;-70
2022/09/15 09:12:49;;;;;;;0.00;0.00;;;19.20;99.90;;;;;;5003071;28;20053;-70
2022/09/15 09:15:25;;;;;;;0.03;0.03;;;19.90;99.90;;;;;;4989107;28;20054;-70
2022/09/15 09:18:12;;;;;;;0.00;0.00;;;20.40;99.90;;;;;;4990666;28;20054;-70
2022/09/15 09:20:41;;;;;;;0.00;0.00;;;20.50;99.90;;;;;;4989306;28;20485;-70
2022/09/15 09:23:13;;;;;;;0.00;0.00;;;20.60;99.90;;;;;;4989854;28;20078;-70
2022/09/15 09:25:41;;;;;;;0.00;0.00;;;20.30;99.90;;;;;;4998793;28;20045;-70
2022/09/15 09:28:27;;;;;;;0.00;0.00;;;20.50;99.90;;;;;;5010143;28;20049;-69
2022/09/15 09:30:55;;;;;;;0.03;0.03;;;20.80;99.90;;;;;;5009526;28;20470;-69
2022/09/15 09:33:29;;;;;;;0.00;0.00;;;20.90;99.90;;;;;;5010107;28;20061;-70
2022/09/15 09:35:56;;;;;;;0.00;0.00;;;21.20;99.90;;;;;;5007785;28;20502;-70
2022/09/15 09:38:35;;;;;;;0.00;0.00;;;21.20;99.90;;;;;;5007609;28;20050;-70
2022/09/15 09:41:05;;;;;;;0.00;0.00;;;21.50;99.90;;;;;;5008434;28;20078;-70
2022/09/15 09:43:31;;;;;;;0.25;0.25;;;21.20;99.10;;;;;;5013984;28;20046;-71
2022/09/15 09:45:58;;;;;;;0.65;0.38;;;20.80;99.90;;;;;;5010740;28;20065;-71
2022/09/15 09:48:26;;;;;;;0.30;0.30;;;20.80;99.90;;;;;;5013774;28;20056;-70
2022/09/15 09:50:51;;;;;;;0.10;0.10;;;20.80;99.90;;;;;;4995824;28;20053;-70
2022/09/15 09:53:30;;;;;;;0.00;0.00;;;20.80;99.90;;;;;;4993550;28;20051;-72
2022/09/15 09:56:10;;;;;;;0.10;0.10;;;20.40;99.90;;;;;;4999158;28;20060;-72
2022/09/15 09:58:36;;;;;;;0.00;0.00;;;20.80;99.90;;;;;;5012997;28;20132;-72
2022/09/15 10:01:10;;;;;;;6.97;1.90;;;20.80;99.90;;;;;;5013120;28;20116;-71
2022/09/15 10:03:37;;;;;;;0.93;0.38;;;20.50;99.90;;;;;;5013540;28;20498;-72
2022/09/15 10:06:10;;;;;;;0.00;0.00;;;20.40;99.90;;;;;;5010622;28;20129;-72
2022/09/15 10:08:37;;;;;;;0.00;0.00;;;20.30;99.50;;;;;;5013782;28;20038;-72
2022/09/15 10:11:09;;;;;;;0.10;0.10;;;20.30;99.90;;;;;;5013442;28;20158;-71
2022/09/15 10:13:48;;;;;;;0.20;0.20;;;20.40;99.60;;;;;;5006955;28;20037;-71
2022/09/15 10:16:18;;;;;;;0.00;0.00;;;20.30;99.90;;;;;;5013276;28;20045;-71
2022/09/15 10:18:43;;;;;;;0.10;0.10;;;20.00;99.90;;;;;;5011922;28;20486;-71
2022/09/15 10:21:12;;;;;;;0.00;0.00;;;19.70;99.90;;;;;;5011703;28;20076;-70
2022/09/15 10:23:37;;;;;;;0.00;0.00;;;19.50;99.90;;;;;;5009228;28;20096;-71
2022/09/15 10:26:15;;;;;;;0.00;0.00;;;19.30;99.90;;;;;;5010678;28;20049;-71
2022/09/15 10:28:41;;;;;;;0.30;0.30;;;19.20;99.90;;;;;;4999116;28;20047;-71
2022/09/15 10:31:23;;;;;;;0.20;0.20;;;19.50;99.90;;;;;;4993042;28;20038;-71
2022/09/15 10:33:48;;;;;;;0.00;0.00;;;19.50;99.90;;;;;;4989941;28;20494;-70
2022/09/15 10:36:17;;;;;;;0.00;0.00;;;19.40;99.90;;;;;;4994683;28;20034;-71
2022/09/15 10:39:03;;;;;;;0.00;0.00;;;19.10;99.90;;;;;;5012791;28;20054;-71
2022/09/15 10:41:30;;;;;;;0.00;0.00;;;19.00;99.90;;;;;;5007042;28;20858;-71
2022/09/15 10:44:11;;;;;;;0.65;0.65;;;19.00;99.90;;;;;;5012380;28;20049;-71
2022/09/15 10:46:57;;;;;;;0.00;0.00;;;19.30;99.90;;;;;;5012926;28;20045;-71
2022/09/15 10:49:34;;;;;;;0.00;0.00;;;19.80;99.90;;;;;;5009184;28;20494;-71
2022/09/15 10:52:02;;;;;;;0.00;0.00;;;20.10;99.90;;;;;;5012391;28;20045;-71
2022/09/15 10:54:40;;;;;;;0.00;0.00;;;20.50;99.90;;;;;;5008161;28;20069;-71
2022/09/15 10:57:35;;;;;;;0.47;0.32;;;20.70;99.90;;;;;;5008568;28;20583;-71
2022/09/15 11:00:17;;;;;;;0.00;0.00;;;21.00;99.90;;;;;;4992724;28;20046;-71
2022/09/15 11:03:27;;;;;;;0.00;0.00;;;21.30;99.90;;;;;;4995437;28;20046;-71
2022/09/15 11:06:19;;;;;;;0.08;0.08;;;21.40;99.90;;;;;;5000450;28;20046;-71
2022/09/15 11:08:56;;;;;;;0.35;0.35;;;21.70;99.90;;;;;;5003177;28;20076;-71
2022/09/15 11:11:47;;;;;;;0.00;0.00;;;21.30;99.90;;;;;;5012165;28;20050;-71
2022/09/15 11:14:39;;;;;;;1.40;0.38;;;20.60;99.90;;;;;;5010783;28;20045;-71
2022/09/15 11:17:20;;;;;;;0.00;0.00;;;20.00;99.90;;;;;;5009900;28;20046;-71
2022/09/15 11:20:04;;;;;;;0.00;0.00;;;19.80;99.90;;;;;;5010066;28;20077;-70
2022/09/15 11:22:50;;;;;;;0.00;0.00;;;20.10;99.90;;;;;;5010175;28;20050;-71
2022/09/15 11:25:23;;;;;;;0.00;0.00;;;20.30;99.90;;;;;;5011939;28;20383;-71
2022/09/15 11:28:21;;;;;;;0.00;0.00;;;20.90;99.90;;;;;;5012610;28;20038;-71
2022/09/15 11:31:02;;;;;;;0.00;0.00;;;21.10;99.90;;;;;;4990561;28;20054;-71
2022/09/15 11:33:39;;;;;;;0.17;0.17;;;21.80;99.90;;;;;;5008414;28;20060;-71
2022/09/15 11:36:11;;;;;;;0.00;0.00;;;22.20;99.90;;;;;;5010341;28;20045;-71
2022/09/15 11:38:52;;;;;;;0.00;0.00;;;21.70;99.50;;;;;;4997269;28;20061;-71
2022/09/15 11:41:19;;;;;;;0.00;0.00;;;21.80;99.90;;;;;;5007759;28;20077;-72
2022/09/15 11:44:13;;;;;;;1.80;0.30;;;21.50;99.90;;;;;;5008881;28;20087;-70
2022/09/15 11:47:14;;;;;;;0.00;0.00;;;20.80;99.90;;;;;;4992051;28;20069;-71
2022/09/15 11:49:43;;;;;;;0.00;0.00;;;20.30;99.90;;;;;;4992073;28;20046;-71
2022/09/15 11:52:35;;;;;;;0.10;0.10;;;20.40;99.90;;;;;;5006687;28;20038;-71
2022/09/15 11:55:22;;;;;;;0.00;0.00;;;21.20;99.90;;;;;;4994963;28;20398;-71
2022/09/15 11:57:58;;;;;;;0.00;0.00;;;21.50;99.90;;;;;;5008748;28;20041;-71
2022/09/15 12:00:24;;;;;;;0.00;0.00;;;21.00;98.90;;;;;;5011028;28;20375;-70
2022/09/15 12:03:09;;;;;;;0.32;0.32;;;20.50;98.80;;;;;;5011280;28;20060;-71
2022/09/15 12:05:44;;;;;;;0.00;0.00;;;20.30;99.90;;;;;;5009174;28;20064;-70
2022/09/15 12:08:28;;;;;;;1.23;0.65;;;19.90;99.90;;;;;;5005078;28;20046;-70
2022/09/15 12:10:55;;;;;;;0.10;0.10;;;19.60;99.90;;;;;;5011526;28;20124;-70
2022/09/15 12:13:24;;;;;;;1.17;0.90;;;19.40;99.90;;;;;;5010414;28;20058;-70
2022/09/15 12:15:51;;;;;;;0.10;0.10;;;19.20;99.90;;;;;;5008964;28;20053;-70
2022/09/15 12:18:36;;;;;;;0.00;0.00;;;19.10;99.90;;;;;;5010850;28;20050;-70
2022/09/15 12:21:17;;;;;;;0.00;0.00;;;19.10;99.90;;;;;;5011115;28;20052;-71
2022/09/15 12:24:08;;;;;;;0.00;0.00;;;19.20;99.90;;;;;;5011398;28;20060;-70
2022/09/15 12:26:34;;;;;;;0.03;0.03;;;19.60;99.90;;;;;;4984898;28;20053;-70
2022/09/15 12:29:26;;;;;;;0.00;0.00;;;19.70;99.90;;;;;;5009704;28;20048;-70
2022/09/15 12:32:37;;;;;;;0.00;0.00;;;19.40;99.90;;;;;;4993141;28;20153;-71
2022/09/15 12:35:29;;;;;;;0.10;0.10;;;19.40;99.90;;;;;;5001826;28;20137;-70
2022/09/15 12:37:57;;;;;;;0.00;0.00;;;19.30;99.90;;;;;;4990173;28;20050;-71
2022/09/15 12:40:29;;;;;;;0.00;0.00;;;20.30;99.90;;;;;;4994813;28;20052;-71
2022/09/15 12:42:55;;;;;;;0.08;0.08;;;20.60;99.90;;;;;;4992793;28;20042;-72
2022/09/15 12:45:35;;;;;;;0.00;0.00;;;21.00;99.90;;;;;;4989467;28;20054;-72
2022/09/15 12:48:12;;;;;;;0.00;0.00;;;21.70;99.90;;;;;;4990063;28;20397;-72
2022/09/15 12:50:41;;;;;;;0.57;0.40;;;22.00;99.90;;;;;;4989805;28;20411;-72
2022/09/15 12:53:19;;;;;;;0.00;0.00;;;21.70;99.90;;;;;;4990713;28;20123;-71
2022/09/15 12:55:54;;;;;;;0.10;0.10;;;21.10;99.90;;;;;;4990741;28;20047;-72
2022/09/15 12:58:35;;;;;;;0.73;0.32;;;20.30;99.90;;;;;;4991267;28;20034;-70
2022/09/15 13:01:25;;;;;;;0.00;0.00;;;19.40;99.90;;;;;;5008580;28;20124;-70
2022/09/15 13:03:52;;;;;;;0.25;0.25;;;18.90;99.90;;;;;;5011379;28;20387;-70
2022/09/15 13:06:26;;;;;;;0.40;0.38;;;18.40;99.90;;;;;;5010768;28;20050;-69
2022/09/15 13:09:01;;;;;;;0.32;0.32;;;18.20;99.90;;;;;;5008323;28;20324;-69
2022/09/15 13:11:33;;;;;;;0.00;0.00;;;17.90;99.90;;;;;;5010248;28;20049;-68